createdAt,value
2023-03-04T00:01:00.837Z,101086.31
2023-03-04T00:04:04.419Z,101084.19
2023-03-04T00:07:06.468Z,101093.34
2023-03-04T00:10:09.638Z,101092.38
2023-03-04T00:13:11.326Z,101101.75
2023-03-04T00:16:13.182Z,101101.97
2023-03-04T00:19:16.184Z,101114.19
2023-03-04T00:22:18.095Z,101105.25
2023-03-04T00:25:20.010Z,101105.72
2023-03-04T00:28:22.100Z,101101.00
2023-03-04T00:31:24.430Z,101096.81
2023-03-04T00:34:28.159Z,101101.06
2023-03-04T00:37:30.094Z,101101.06
2023-03-04T00:40:32.035Z,101103.13
2023-03-04T00:43:33.770Z,101105.00
2023-03-04T00:46:35.914Z,101107.59
2023-03-04T00:49:42.791Z,101102.19
2023-03-04T00:52:44.563Z,101113.72
2023-03-04T00:55:46.449Z,101110.38
2023-03-04T00:58:48.299Z,101109.47
2023-03-04T01:01:50.076Z,101104.72
2023-03-04T01:04:54.251Z,101107.72
2023-03-04T01:07:59.126Z,101101.19
2023-03-04T01:11:03.422Z,101100.47
2023-03-04T01:14:05.382Z,101102.84
2023-03-04T01:17:07.378Z,101093.72
2023-03-04T01:20:12.047Z,101095.81
2023-03-04T01:23:14.024Z,101104.44
2023-03-04T01:26:17.067Z,101103.00
2023-03-04T01:29:18.862Z,101097.63
2023-03-04T01:32:20.738Z,101098.31
2023-03-04T01:35:25.070Z,101088.97
2023-03-04T01:38:26.858Z,101092.72
2023-03-04T01:41:32.373Z,101090.59
2023-03-04T01:44:33.903Z,101086.19
2023-03-04T01:47:36.170Z,101081.03
2023-03-04T01:50:42.124Z,101084.06
2023-03-04T01:53:45.279Z,101073.94
2023-03-04T01:56:48.565Z,101074.63
2023-03-04T05:19:33.190Z,101025.34
2023-03-04T05:22:45.305Z,101029.34
2023-03-04T06:12:52.451Z,101037.78
2023-03-04T06:20:50.081Z,101042.94
2023-03-04T06:24:06.432Z,101053.03
2023-03-04T06:27:27.716Z,101049.31
2023-03-04T06:35:15.543Z,101055.16
2023-03-04T06:38:51.158Z,101054.22
2023-03-04T06:42:43.057Z,101056.09
2023-03-04T06:51:10.910Z,101073.47
2023-03-04T06:54:39.379Z,101068.31
2023-03-04T06:57:52.855Z,101070.16
2023-03-04T07:01:28.963Z,101075.75
2023-03-04T07:04:44.810Z,101071.53
2023-03-04T07:13:19.689Z,101084.00
2023-03-04T07:16:29.845Z,101085.59
2023-03-04T07:46:47.838Z,101108.41
2023-03-04T07:49:53.781Z,101109.75
2023-03-04T07:52:57.799Z,101102.66
2023-03-04T07:56:02.638Z,101099.63
2023-03-04T07:59:06.082Z,101101.22
2023-03-04T08:02:11.567Z,101095.03
2023-03-04T08:05:14.527Z,101112.59
2023-03-04T08:08:17.786Z,101117.00
2023-03-04T08:11:22.136Z,101111.19
2023-03-04T08:14:28.016Z,101114.09
2023-03-04T08:17:35.613Z,101115.81
2023-03-04T08:20:43.548Z,101119.13
2023-03-04T08:24:11.600Z,101114.81
2023-03-04T08:32:54.014Z,101104.81
2023-03-04T08:36:31.663Z,101121.91
2023-03-04T08:43:46.824Z,101127.41
2023-03-04T08:46:49.191Z,101125.91
2023-03-04T08:49:52.232Z,101117.91
2023-03-04T08:52:56.014Z,101111.97
2023-03-04T08:55:58.180Z,101115.97
2023-03-04T08:59:00.241Z,101113.03
2023-03-04T09:02:02.267Z,101122.06
2023-03-04T09:05:05.356Z,101123.31
2023-03-04T09:08:09.933Z,101114.84
2023-03-04T09:11:12.775Z,101122.59
2023-03-04T09:14:15.316Z,101125.69
2023-03-04T09:17:18.436Z,101120.25
2023-03-04T09:20:21.235Z,101116.31
2023-03-04T09:23:25.254Z,101115.31
2023-03-04T09:26:29.538Z,101114.31
2023-03-04T09:29:31.744Z,101115.19
2023-03-04T09:32:34.705Z,101118.34
2023-03-04T09:35:37.268Z,101114.91
2023-03-04T09:38:41.830Z,101108.63
2023-03-04T09:41:46.134Z,101110.50
2023-03-04T09:44:48.572Z,101112.59
2023-03-04T09:47:54.544Z,101111.00
2023-03-04T09:51:13.824Z,101109.28
2023-03-04T09:54:29.055Z,101114.28
2023-03-04T09:57:43.607Z,101115.63
2023-03-04T10:00:51.727Z,101114.19
2023-03-04T10:03:58.420Z,101118.66
2023-03-04T10:07:02.023Z,101121.22
2023-03-04T10:10:11.309Z,101109.00
2023-03-04T10:13:21.772Z,101120.59
2023-03-04T10:16:29.767Z,101125.59
2023-03-04T10:19:52.221Z,101114.09
2023-03-04T10:22:58.268Z,101117.88
2023-03-04T10:26:11.151Z,101117.22
2023-03-04T10:29:17.496Z,101118.06
2023-03-04T10:32:21.557Z,101121.28
2023-03-04T10:35:33.710Z,101123.97
2023-03-04T10:38:38.970Z,101115.59
2023-03-04T10:41:54.344Z,101115.22
2023-03-04T10:44:58.852Z,101116.41
2023-03-04T10:48:02.528Z,101114.22
2023-03-04T10:51:20.536Z,101110.91
2023-03-04T10:54:28.958Z,101109.38
2023-03-04T10:57:38.161Z,101105.66
2023-03-04T11:00:41.311Z,101094.72
2023-03-04T11:03:49.047Z,101090.19
2023-03-04T11:06:51.642Z,101094.44
2023-03-04T11:09:57.263Z,101092.78
2023-03-04T11:13:07.235Z,101084.47
2023-03-04T11:16:25.717Z,101080.41
2023-03-04T11:19:32.611Z,101077.84
2023-03-04T11:22:35.639Z,101078.03
2023-03-04T11:25:42.495Z,101078.13
2023-03-04T11:28:51.548Z,101067.88
2023-03-04T11:31:58.423Z,101073.06
2023-03-04T11:35:08.697Z,101064.25
2023-03-04T11:38:18.834Z,101062.56
2023-03-04T11:41:24.678Z,101061.31
2023-03-04T11:44:30.728Z,101065.69
2023-03-04T11:47:50.849Z,101052.72
2023-03-04T11:50:58.067Z,101059.22
2023-03-04T11:54:18.127Z,101051.31
2023-03-04T11:57:33.152Z,101048.38
2023-03-04T12:00:43.152Z,101047.44
2023-03-04T12:04:14.522Z,101041.91
2023-03-04T12:07:36.531Z,101042.53
2023-03-04T12:10:45.026Z,101039.41
2023-03-04T12:14:09.481Z,101028.13
2023-03-04T12:17:42.370Z,101028.25
2023-03-04T12:21:06.664Z,101021.75
2023-03-04T12:24:27.278Z,101028.84
2023-03-04T12:27:36.904Z,101027.59
2023-03-04T12:30:53.364Z,101023.25
2023-03-04T12:34:23.858Z,101016.22
2023-03-04T12:37:38.005Z,101016.88
2023-03-04T12:40:49.277Z,101018.72
2023-03-04T12:43:54.921Z,101019.25
2023-03-04T12:48:32.526Z,101008.69
2023-03-04T12:51:51.486Z,101001.16
2023-03-04T12:54:59.424Z,100999.13
2023-03-04T12:58:02.113Z,100990.69
2023-03-04T13:01:23.563Z,100994.13
2023-03-04T13:05:36.348Z,100985.94
2023-03-04T13:16:31.879Z,100980.41
2023-03-04T13:31:32.732Z,100963.41
2023-03-04T13:39:44.475Z,100966.75
2023-03-04T14:03:47.608Z,100931.13
2023-03-04T14:12:23.396Z,100925.34
2023-03-04T14:21:28.572Z,100926.97
2023-03-04T14:33:14.373Z,100916.72
2023-03-04T14:36:29.991Z,100905.13
2023-03-04T14:45:45.236Z,100905.47
2023-03-04T14:59:15.876Z,100887.06
2023-03-04T15:02:34.112Z,100878.53
2023-03-04T15:05:42.012Z,100878.00
2023-03-04T15:09:08.795Z,100889.28
2023-03-04T15:12:49.677Z,100879.06
2023-03-04T15:16:18.386Z,100880.13
2023-03-04T15:19:28.895Z,100872.34
2023-03-04T15:22:35.198Z,100876.97
2023-03-04T15:25:58.923Z,100876.22
2023-03-04T15:29:18.320Z,100878.84
2023-03-04T15:32:34.643Z,100871.22
2023-03-04T15:36:13.800Z,100875.16
2023-03-04T15:39:19.901Z,100868.09
2023-03-04T15:42:23.438Z,100863.03
2023-03-04T15:45:28.561Z,100862.09
2023-03-04T15:48:47.232Z,100858.94
2023-03-04T15:51:57.181Z,100866.75
2023-03-04T15:55:11.726Z,100857.06
2023-03-04T15:58:18.427Z,100853.38
2023-03-04T16:01:21.977Z,100858.94
2023-03-04T16:04:29.011Z,100855.97
2023-03-04T16:07:33.269Z,100858.03
2023-03-04T16:10:37.475Z,100857.06
2023-03-04T16:13:42.465Z,100851.69
2023-03-04T16:16:50.894Z,100854.69
2023-03-04T16:19:59.132Z,100850.75
2023-03-04T16:23:14.351Z,100851.69
2023-03-04T16:26:23.326Z,100852.81
2023-03-04T16:29:33.243Z,100850.72
2023-03-04T16:32:50.232Z,100857.38
2023-03-04T16:35:57.145Z,100849.41
2023-03-04T16:39:14.600Z,100848.47
2023-03-04T16:42:33.184Z,100844.91
2023-03-04T16:46:56.125Z,100851.81
2023-03-04T16:50:07.995Z,100849.72
2023-03-04T16:53:42.429Z,100850.66
2023-03-04T16:57:25.064Z,100842.66
2023-03-04T17:42:42.482Z,100850.91
2023-03-04T17:51:10.771Z,100853.31
2023-03-04T18:00:39.007Z,100844.38
2023-03-04T18:19:21.988Z,100847.16
2023-03-04T18:22:24.693Z,100843.47
2023-03-04T18:25:28.569Z,100836.78
2023-03-04T18:28:40.492Z,100834.72
2023-03-04T21:09:46.867Z,100803.78
2023-03-04T21:12:50.417Z,100808.22
2023-03-04T21:15:53.349Z,100802.81
2023-03-04T21:18:56.865Z,100806.56
2023-03-04T21:22:00.738Z,100807.69
2023-03-04T21:25:06.257Z,100807.50
2023-03-04T21:28:09.630Z,100806.81
2023-03-04T21:31:17.440Z,100799.53
2023-03-04T21:34:22.402Z,100795.09
2023-03-04T21:37:26.390Z,100794.00
2023-03-04T21:40:30.296Z,100802.56
2023-03-04T21:43:33.079Z,100803.47
2023-03-04T21:46:35.791Z,100793.06
2023-03-04T21:49:39.089Z,100790.13
2023-03-04T21:52:42.665Z,100789.00
2023-03-04T21:55:47.372Z,100787.34
2023-03-04T21:58:50.027Z,100787.91
2023-03-04T22:01:52.532Z,100784.22
2023-03-04T22:04:55.159Z,100788.44
2023-03-04T22:07:58.286Z,100795.34
2023-03-04T22:11:06.239Z,100787.88
2023-03-04T22:14:10.433Z,100783.41
2023-03-04T22:17:13.814Z,100782.34
2023-03-04T22:20:17.513Z,100779.88
2023-03-04T22:23:21.256Z,100784.22
2023-03-04T22:26:33.291Z,100781.81
2023-03-04T22:29:36.549Z,100777.34
2023-03-04T22:32:39.550Z,100778.06
2023-03-04T22:35:53.414Z,100769.91
2023-03-04T22:38:58.745Z,100773.28
2023-03-04T22:42:02.975Z,100772.84
2023-03-04T22:45:06.481Z,100769.53
2023-03-04T22:48:08.956Z,100763.94
2023-03-04T22:51:12.049Z,100764.16
2023-03-04T22:54:16.698Z,100764.69
2023-03-04T22:57:21.311Z,100760.41
2023-03-04T23:00:25.920Z,100760.28
2023-03-04T23:03:30.532Z,100766.94
2023-03-04T23:06:33.249Z,100758.94
2023-03-04T23:09:35.906Z,100759.88
2023-03-04T23:12:40.860Z,100753.41
2023-03-04T23:15:43.449Z,100766.41
2023-03-04T23:18:48.063Z,100753.59
2023-03-04T23:21:50.520Z,100758.78
2023-03-04T23:24:53.112Z,100760.47
2023-03-04T23:27:57.103Z,100755.19
2023-03-04T23:30:59.656Z,100753.56
2023-03-04T23:34:03.533Z,100748.31
2023-03-04T23:37:08.014Z,100754.28
2023-03-04T23:40:12.118Z,100754.28
2023-03-04T23:43:16.441Z,100745.38
2023-03-04T23:46:20.276Z,100746.09
2023-03-04T23:49:22.895Z,100749.63
2023-03-04T23:52:26.277Z,100742.44
2023-03-04T23:55:28.941Z,100741.66
2023-03-04T23:58:33.112Z,100746.28
